Time;durP1;ratioP1;P1;durP2;ratioP2;P2;SDS_P1;SDS_P2;PMS_P1;PMS_P2;Temp;Humidity;BMP_temperature;BMP_pressure;BME280_temperature;BME280_humidity;BME280_pressure;Samples;Min_cycle;Max_cycle;Signal;HPM_P1;HPM_P2
2023/05/26 00:01:46;;;;;;;23.80;4.90;;;;;;;9.99;100.00;102727.50;5007967;28;20018;-65
2023/05/26 00:04:16;;;;;;;15.45;4.68;;;;;;;9.96;100.00;102730.81;5008805;28;20132;-65
2023/05/26 00:06:42;;;;;;;18.83;5.03;;;;;;;9.94;100.00;102728.91;5008353;28;20022;-65
2023/05/26 00:09:08;;;;;;;20.60;5.15;;;;;;;9.90;100.00;102735.56;5008490;28;20368;-66
2023/05/26 00:11:33;;;;;;;21.77;5.18;;;;;;;9.87;100.00;102729.28;5007630;28;20105;-64
2023/05/26 00:13:58;;;;;;;22.27;5.60;;;;;;;9.85;100.00;102737.88;5008299;28;20026;-65
2023/05/26 00:16:24;;;;;;;21.95;5.13;;;;;;;9.81;100.00;102733.28;5008449;28;20492;-65
2023/05/26 00:18:49;;;;;;;19.38;4.85;;;;;;;9.77;100.00;102738.16;5008387;28;20513;-65
2023/05/26 00:21:15;;;;;;;15.30;4.78;;;;;;;9.71;100.00;102738.66;5010242;28;20588;-66
2023/05/26 00:23:40;;;;;;;16.63;5.50;;;;;;;9.66;100.00;102734.88;5012136;28;20022;-65
2023/05/26 00:26:07;;;;;;;20.98;5.30;;;;;;;9.61;100.00;102742.31;5012256;28;20109;-65
2023/05/26 00:28:32;;;;;;;23.40;5.65;;;;;;;9.60;100.00;102743.13;5012753;28;20030;-65
2023/05/26 00:30:58;;;;;;;24.05;6.07;;;;;;;9.58;100.00;102748.19;5011888;28;20101;-66
2023/05/26 00:33:23;;;;;;;21.40;6.40;;;;;;;9.57;100.00;102746.38;5011970;28;20401;-65
2023/05/26 00:35:48;;;;;;;18.80;5.95;;;;;;;9.52;100.00;102744.28;5011327;28;20026;-65
2023/05/26 00:38:14;;;;;;;21.67;5.13;;;;;;;9.45;100.00;102746.47;5011849;28;20073;-64
2023/05/26 00:40:39;;;;;;;16.98;6.05;;;;;;;9.43;100.00;102749.72;5011849;28;20033;-65
2023/05/26 00:43:04;;;;;;;24.73;5.15;;;;;;;9.42;100.00;102740.19;5011819;28;20503;-64
2023/05/26 00:45:30;;;;;;;21.48;5.70;;;;;;;9.41;100.00;102746.19;5011801;28;20029;-66
2023/05/26 00:47:55;;;;;;;22.77;5.78;;;;;;;9.39;100.00;102734.81;5011348;28;20087;-66
2023/05/26 00:50:20;;;;;;;19.33;4.95;;;;;;;9.37;100.00;102735.59;5011847;28;20021;-65
2023/05/26 00:52:46;;;;;;;21.83;6.18;;;;;;;9.35;100.00;102744.94;5011626;28;20040;-65
2023/05/26 00:55:12;;;;;;;17.27;4.82;;;;;;;9.34;100.00;102744.84;5011749;28;20052;-66
2023/05/26 00:57:37;;;;;;;20.42;5.28;;;;;;;9.31;100.00;102748.13;5010976;28;20465;-65
2023/05/26 01:00:05;;;;;;;24.60;6.15;;;;;;;9.31;100.00;102747.22;5011822;28;20051;-64
2023/05/26 01:02:30;;;;;;;15.48;4.70;;;;;;;9.29;100.00;102744.53;5011467;28;20428;-64
2023/05/26 01:04:57;;;;;;;16.33;4.53;;;;;;;9.29;100.00;102747.13;5011314;28;20026;-66
2023/05/26 01:07:23;;;;;;;25.42;5.95;;;;;;;9.28;100.00;102747.03;5010887;28;20022;-65
2023/05/26 01:09:50;;;;;;;18.77;5.53;;;;;;;9.25;100.00;102745.09;5011149;28;20033;-65
2023/05/26 01:12:36;;;;;;;20.90;5.10;;;;;;;9.22;100.00;102751.00;5011281;28;20061;-66
2023/05/26 01:15:25;;;;;;;17.98;5.40;;;;;;;9.21;100.00;102751.75;5011590;28;20034;-65
2023/05/26 01:17:59;;;;;;;15.23;5.20;;;;;;;9.16;100.00;102752.25;5010819;28;20029;-65
2023/05/26 01:20:26;;;;;;;20.17;5.43;;;;;;;9.12;100.00;102757.22;5011403;28;20029;-65
2023/05/26 01:22:54;;;;;;;16.77;4.65;;;;;;;9.07;100.00;102753.41;5010876;28;20381;-65
2023/05/26 01:25:22;;;;;;;16.08;5.18;;;;;;;9.06;100.00;102759.38;5010773;28;20429;-65
2023/05/26 01:28:10;;;;;;;27.25;5.30;;;;;;;9.03;100.00;102756.56;5010931;28;20034;-65
2023/05/26 01:30:36;;;;;;;16.55;4.82;;;;;;;9.03;100.00;102756.56;5010521;28;20462;-66
2023/05/26 01:33:02;;;;;;;19.58;4.78;;;;;;;9.01;100.00;102763.34;5010930;28;20030;-65
2023/05/26 01:35:28;;;;;;;16.13;4.07;;;;;;;9.00;100.00;102759.84;5010643;28;20032;-65
2023/05/26 01:37:54;;;;;;;24.35;5.07;;;;;;;8.96;100.00;102752.66;5010384;28;20057;-65
2023/05/26 01:40:20;;;;;;;25.38;5.90;;;;;;;8.93;100.00;102755.03;5010484;28;20075;-64
2023/05/26 01:42:55;;;;;;;23.02;6.03;;;;;;;8.87;100.00;102758.09;5010753;28;20456;-64
2023/05/26 01:45:24;;;;;;;22.30;5.43;;;;;;;8.85;100.00;102761.38;5010382;28;20038;-65
2023/05/26 01:47:55;;;;;;;24.70;6.10;;;;;;;8.79;100.00;102759.25;5010467;28;20117;-64
2023/05/26 01:50:26;;;;;;;20.00;6.05;;;;;;;8.71;100.00;102771.63;5009749;28;20083;-65
2023/05/26 01:52:56;;;;;;;20.63;5.32;;;;;;;8.68;100.00;102762.75;5010361;28;20045;-65
2023/05/26 01:55:22;;;;;;;22.35;7.22;;;;;;;8.64;100.00;102759.97;5010918;28;20028;-65
2023/05/26 01:57:48;;;;;;;20.48;5.28;;;;;;;8.62;100.00;102769.28;5010465;28;20029;-66
2023/05/26 02:00:14;;;;;;;16.63;5.03;;;;;;;8.60;100.00;102765.69;5010819;28;20091;-65
2023/05/26 02:02:39;;;;;;;17.85;4.85;;;;;;;8.59;100.00;102768.19;4992107;28;20076;-64
2023/05/26 02:05:06;;;;;;;25.63;6.32;;;;;;;8.58;100.00;102771.56;5010113;28;20026;-65
2023/05/26 02:07:34;;;;;;;20.58;5.90;;;;;;;8.57;100.00;102770.66;5010363;28;20485;-65
2023/05/26 02:10:00;;;;;;;21.70;4.53;;;;;;;8.53;100.00;102764.34;5010006;28;20033;-65
2023/05/26 02:12:25;;;;;;;25.38;5.78;;;;;;;8.51;100.00;102765.00;5009905;28;20025;-65
2023/05/26 02:14:50;;;;;;;20.70;5.10;;;;;;;8.49;100.00;102772.66;5010313;28;20022;-65
2023/05/26 02:17:17;;;;;;;19.25;4.47;;;;;;;8.47;100.00;102771.63;5009791;28;20490;-66
2023/05/26 02:19:42;;;;;;;23.15;6.10;;;;;;;8.46;100.00;102776.69;5009770;28;20018;-65
2023/05/26 02:22:07;;;;;;;26.55;6.03;;;;;;;8.41;100.00;102769.53;4997824;28;20489;-66
2023/05/26 02:24:32;;;;;;;22.55;5.45;;;;;;;8.40;100.00;102775.47;5009273;28;20377;-65
2023/05/26 02:26:58;;;;;;;18.95;4.70;;;;;;;8.38;100.00;102784.78;5009382;28;20021;-64
2023/05/26 02:29:23;;;;;;;24.25;6.90;;;;;;;8.35;100.00;102784.59;5009543;28;20028;-64
2023/05/26 02:31:48;;;;;;;20.77;4.85;;;;;;;8.28;100.00;102777.16;5009920;28;20405;-65
2023/05/26 02:34:14;;;;;;;15.68;4.70;;;;;;;8.24;100.00;102780.34;5009330;28;20482;-65
2023/05/26 02:36:40;;;;;;;19.58;5.75;;;;;;;8.20;100.00;102778.31;5009448;28;20032;-66
2023/05/26 02:39:05;;;;;;;19.98;5.22;;;;;;;8.17;100.00;102782.47;5009469;28;20466;-65
2023/05/26 02:41:30;;;;;;;19.95;5.72;;;;;;;8.12;100.00;102785.47;5009572;28;20389;-64
2023/05/26 02:43:56;;;;;;;17.92;4.95;;;;;;;8.08;100.00;102784.34;5008261;28;20053;-65
2023/05/26 02:46:21;;;;;;;24.52;5.78;;;;;;;8.04;100.00;102783.22;5009050;28;20040;-64
2023/05/26 02:48:46;;;;;;;21.00;5.38;;;;;;;8.01;100.00;102774.38;4991870;28;20033;-65
2023/05/26 02:51:11;;;;;;;20.05;4.53;;;;;;;7.99;100.00;102775.94;5009684;28;20473;-64
2023/05/26 02:53:38;;;;;;;21.65;5.13;;;;;;;7.95;100.00;102777.38;5009029;28;20021;-65
2023/05/26 02:56:03;;;;;;;18.67;4.80;;;;;;;7.92;100.00;102775.50;5009194;28;20026;-65
2023/05/26 02:58:29;;;;;;;25.42;5.25;;;;;;;7.87;100.00;102776.84;5009025;28;20037;-64
2023/05/26 03:00:54;;;;;;;20.10;4.97;;;;;;;7.83;100.00;102781.63;5009002;28;20033;-65
2023/05/26 03:03:20;;;;;;;20.58;5.18;;;;;;;7.77;100.00;102782.09;5009141;28;20026;-65
2023/05/26 03:05:45;;;;;;;21.08;6.25;;;;;;;7.74;100.00;102779.28;5009368;28;20068;-65
2023/05/26 03:08:10;;;;;;;19.05;5.43;;;;;;;7.73;100.00;102780.06;5008824;28;20018;-64
2023/05/26 03:10:36;;;;;;;23.75;6.43;;;;;;;7.72;100.00;102780.88;5008779;28;20037;-66
2023/05/26 03:13:01;;;;;;;20.65;5.25;;;;;;;7.68;100.00;102778.03;5008449;28;20022;-64
2023/05/26 03:15:35;;;;;;;24.30;5.22;;;;;;;7.69;100.00;102784.09;5009330;28;20030;-65
2023/05/26 03:18:00;;;;;;;16.98;4.47;;;;;;;7.64;100.00;102776.03;5009021;28;20068;-65
2023/05/26 03:20:25;;;;;;;23.38;5.03;;;;;;;7.61;100.00;102775.78;5008844;28;20465;-65
2023/05/26 03:22:51;;;;;;;20.25;5.40;;;;;;;7.58;100.00;102783.28;4989706;28;20046;-65
2023/05/26 03:25:16;;;;;;;20.98;6.30;;;;;;;7.55;100.00;102786.56;5007411;28;20036;-65
2023/05/26 03:27:41;;;;;;;23.27;5.55;;;;;;;7.54;100.00;102783.84;5007739;28;20021;-64
2023/05/26 03:30:08;;;;;;;19.77;5.15;;;;;;;7.53;100.00;102792.38;5006535;28;20441;-64
2023/05/26 03:32:33;;;;;;;19.25;5.90;;;;;;;7.52;100.00;102785.44;5006690;28;20025;-65
2023/05/26 03:34:58;;;;;;;24.40;5.95;;;;;;;7.48;100.00;102792.03;5007417;28;20458;-65
2023/05/26 03:37:24;;;;;;;20.02;5.78;;;;;;;7.47;100.00;102786.72;5006739;28;20072;-64
2023/05/26 03:39:51;;;;;;;17.92;4.55;;;;;;;7.45;100.00;102795.25;5007656;28;20040;-64
2023/05/26 03:42:16;;;;;;;18.85;4.90;;;;;;;7.43;100.00;102796.81;5008383;28;20482;-65
2023/05/26 03:44:41;;;;;;;16.45;4.57;;;;;;;7.44;100.00;102796.06;4991212;28;20165;-65
2023/05/26 03:47:07;;;;;;;21.00;5.72;;;;;;;7.43;100.00;102807.13;5008738;28;20097;-65
2023/05/26 03:49:32;;;;;;;19.00;4.95;;;;;;;7.41;100.00;102808.69;5008245;28;20029;-65
2023/05/26 03:51:57;;;;;;;21.63;5.32;;;;;;;7.40;100.00;102806.91;5008271;28;20026;-65
2023/05/26 03:54:22;;;;;;;21.15;6.00;;;;;;;7.41;100.00;102811.28;5008580;28;20448;-65
2023/05/26 03:56:48;;;;;;;22.92;6.38;;;;;;;7.43;100.00;102807.13;5008416;28;20018;-64
2023/05/26 03:59:13;;;;;;;14.65;4.57;;;;;;;7.45;100.00;102809.84;5008401;28;20087;-66
2023/05/26 04:01:39;;;;;;;24.55;6.13;;;;;;;7.44;100.00;102808.97;5008126;28;20026;-64
2023/05/26 04:04:04;;;;;;;27.15;5.28;;;;;;;7.48;100.00;102804.03;5008725;28;20367;-65
2023/05/26 04:06:30;;;;;;;23.65;5.47;;;;;;;7.49;100.00;102805.81;5008734;28;20041;-64
2023/05/26 04:08:56;;;;;;;21.45;5.07;;;;;;;7.51;100.00;102799.09;5007826;28;20533;-66
2023/05/26 04:11:22;;;;;;;18.70;5.35;;;;;;;7.50;100.00;102802.47;5006727;28;20022;-65
2023/05/26 04:13:47;;;;;;;23.55;6.03;;;;;;;7.54;100.00;102805.38;5008275;28;20383;-65
2023/05/26 04:16:12;;;;;;;24.00;5.93;;;;;;;7.56;100.00;102808.06;5007903;28;20036;-64
2023/05/26 04:18:40;;;;;;;21.20;5.95;;;;;;;7.57;100.00;102799.56;5007684;28;20083;-64
2023/05/26 04:21:05;;;;;;;19.75;4.70;;;;;;;7.61;100.00;102813.59;5007993;28;20025;-64
2023/05/26 04:23:30;;;;;;;22.73;5.90;;;;;;;7.61;100.00;102817.06;5008129;28;20061;-64
2023/05/26 04:25:55;;;;;;;22.52;5.38;;;;;;;7.60;100.00;102815.28;5007848;28;20030;-65
2023/05/26 04:28:21;;;;;;;23.42;5.90;;;;;;;7.61;100.00;102811.91;5007754;28;20088;-65
2023/05/26 04:30:47;;;;;;;25.38;6.13;;;;;;;7.63;100.00;102820.66;5007885;28;20085;-65
2023/05/26 04:33:13;;;;;;;25.27;5.32;;;;;;;7.63;100.00;102812.91;5008327;28;20113;-65
2023/05/26 04:35:38;;;;;;;17.05;5.10;;;;;;;7.67;100.00;102812.38;5008052;28;20079;-64
2023/05/26 04:38:04;;;;;;;19.80;5.57;;;;;;;7.71;100.00;102810.03;5008014;28;20053;-65
2023/05/26 04:40:32;;;;;;;24.75;6.00;;;;;;;7.74;100.00;102816.31;5007655;28;20527;-64
2023/05/26 04:42:59;;;;;;;22.92;5.95;;;;;;;7.77;100.00;102823.41;5007876;28;20101;-64
2023/05/26 04:45:24;;;;;;;22.85;6.60;;;;;;;7.81;100.00;102821.16;5005069;28;20066;-64
2023/05/26 04:47:49;;;;;;;25.10;5.80;;;;;;;7.82;100.00;102819.50;4998259;28;20481;-65
2023/05/26 04:50:16;;;;;;;19.80;5.68;;;;;;;7.87;100.00;102823.31;5007638;28;20484;-64
2023/05/26 04:52:41;;;;;;;22.25;4.95;;;;;;;7.90;100.00;102818.38;5008235;28;20022;-64
2023/05/26 04:55:10;;;;;;;27.63;5.22;;;;;;;7.96;100.00;102825.69;5008147;28;20444;-65
2023/05/26 04:57:35;;;;;;;24.25;5.45;;;;;;;8.03;100.00;102821.88;5007748;28;20034;-66
2023/05/26 05:00:01;;;;;;;24.55;5.35;;;;;;;8.06;100.00;102822.06;5008034;28;20029;-65
2023/05/26 05:02:26;;;;;;;25.85;5.47;;;;;;;8.15;100.00;102838.25;5007940;28;20413;-64
2023/05/26 05:04:52;;;;;;;25.13;5.50;;;;;;;8.14;100.00;102835.56;5007395;28;20096;-65
2023/05/26 05:07:17;;;;;;;24.92;5.82;;;;;;;8.22;100.00;102838.72;5010563;28;20029;-66
2023/05/26 05:09:43;;;;;;;21.92;5.25;;;;;;;8.29;100.00;102838.41;5011770;28;20028;-64
2023/05/26 05:12:09;;;;;;;26.23;5.60;;;;;;;8.35;100.00;102841.41;5010239;28;20033;-64
2023/05/26 05:14:34;;;;;;;21.17;5.60;;;;;;;8.39;100.00;102840.88;5010816;28;20465;-65
2023/05/26 05:17:00;;;;;;;26.27;5.53;;;;;;;8.44;100.00;102842.91;5011092;28;20080;-65
2023/05/26 05:19:25;;;;;;;23.33;6.63;;;;;;;8.48;100.00;102837.16;5011150;28;20385;-65
2023/05/26 05:21:50;;;;;;;21.67;5.50;;;;;;;8.55;100.00;102836.81;5011121;28;20036;-65
2023/05/26 05:24:16;;;;;;;25.23;6.22;;;;;;;8.63;100.00;102845.16;5010409;28;20112;-66
2023/05/26 05:26:41;;;;;;;25.65;6.95;;;;;;;8.71;100.00;102840.53;5011070;28;20030;-64
2023/05/26 05:29:08;;;;;;;19.75;5.45;;;;;;;8.77;100.00;102846.16;5010573;28;20021;-64
2023/05/26 05:31:33;;;;;;;23.48;6.55;;;;;;;8.84;100.00;102850.97;5010821;28;20360;-65
2023/05/26 05:33:59;;;;;;;19.02;5.90;;;;;;;8.92;100.00;102845.44;5010849;28;20029;-65
2023/05/26 05:36:24;;;;;;;19.85;4.80;;;;;;;8.99;100.00;102847.69;5010782;28;20121;-65
2023/05/26 05:38:49;;;;;;;13.73;4.65;;;;;;;9.08;100.00;102845.75;5011051;28;20505;-64
2023/05/26 05:41:15;;;;;;;27.77;6.45;;;;;;;9.18;100.00;102844.69;5010788;28;20045;-65
2023/05/26 05:43:40;;;;;;;20.10;5.22;;;;;;;9.27;100.00;102854.78;5010233;28;20026;-64
2023/05/26 05:46:06;;;;;;;18.73;6.53;;;;;;;9.37;100.00;102841.69;5010828;28;20037;-65
2023/05/26 05:48:31;;;;;;;24.83;6.22;;;;;;;9.41;100.00;102853.16;5010446;28;20394;-65
2023/05/26 05:50:56;;;;;;;25.95;6.35;;;;;;;9.47;100.00;102855.25;5010673;28;20029;-65
2023/05/26 05:53:22;;;;;;;26.75;6.93;;;;;;;9.55;100.00;102856.69;5010423;28;20484;-64
2023/05/26 05:55:47;;;;;;;22.35;5.43;;;;;;;9.67;100.00;102858.31;5010759;28;20021;-65
2023/05/26 05:58:14;;;;;;;20.48;5.63;;;;;;;9.77;100.00;102858.16;5010458;28;20030;-64
2023/05/26 06:00:40;;;;;;;20.70;5.63;;;;;;;9.83;100.00;102863.75;5010135;28;20474;-64
2023/05/26 06:03:05;;;;;;;24.88;6.68;;;;;;;9.96;100.00;102862.91;5006815;28;20040;-65
2023/05/26 06:05:30;;;;;;;16.63;5.70;;;;;;;10.08;100.00;102873.16;4992868;28;20393;-64
2023/05/26 06:07:56;;;;;;;25.75;5.43;;;;;;;10.12;100.00;102870.78;5003070;28;20132;-66
2023/05/26 06:10:21;;;;;;;24.95;5.93;;;;;;;10.25;100.00;102872.50;5000041;28;20475;-65
2023/05/26 06:12:46;;;;;;;20.83;5.38;;;;;;;10.38;100.00;102874.19;4996902;28;20156;-64
2023/05/26 06:15:12;;;;;;;25.40;6.05;;;;;;;10.50;100.00;102888.00;4998704;28;20579;-65
2023/05/26 06:17:37;;;;;;;25.33;5.53;;;;;;;10.56;100.00;102875.41;4997146;28;20030;-64
2023/05/26 06:20:03;;;;;;;18.65;5.25;;;;;;;10.56;100.00;102880.59;5005955;28;20037;-65
2023/05/26 06:22:28;;;;;;;22.65;6.07;;;;;;;10.63;100.00;102886.19;5000302;28;20030;-64
2023/05/26 06:24:53;;;;;;;17.20;4.88;;;;;;;10.72;100.00;102880.69;4999972;28;20030;-65
2023/05/26 06:27:19;;;;;;;22.92;5.47;;;;;;;10.73;100.00;102885.97;4998928;28;20477;-66
2023/05/26 06:29:44;;;;;;;20.50;5.05;;;;;;;10.84;100.00;102886.66;5005280;28;20080;-65
2023/05/26 06:32:09;;;;;;;28.80;6.30;;;;;;;10.85;100.00;102882.38;4995506;28;20025;-65
2023/05/26 06:34:34;;;;;;;23.63;6.28;;;;;;;11.01;100.00;102879.94;4999401;28;20068;-65
2023/05/26 06:37:00;;;;;;;26.73;6.15;;;;;;;11.15;100.00;102882.53;4995630;28;20463;-65
2023/05/26 06:39:25;;;;;;;17.90;5.65;;;;;;;11.32;100.00;102882.66;4995067;28;20038;-65
2023/05/26 06:41:50;;;;;;;23.25;6.55;;;;;;;11.31;99.37;102879.19;5001144;28;20057;-66
2023/05/26 06:44:16;;;;;;;21.77;6.07;;;;;;;11.33;98.31;102887.06;4999582;28;20478;-66
2023/05/26 06:46:41;;;;;;;19.67;6.03;;;;;;;11.34;99.11;102881.94;4999209;28;20080;-64
2023/05/26 06:49:07;;;;;;;27.20;6.30;;;;;;;11.40;98.57;102874.53;5003325;28;20026;-63
2023/05/26 06:51:32;;;;;;;19.92;6.00;;;;;;;11.58;99.24;102883.38;4993065;28;20026;-62
2023/05/26 06:53:57;;;;;;;18.90;5.47;;;;;;;11.76;97.01;102884.44;4996071;28;20074;-63
2023/05/26 06:56:23;;;;;;;15.75;5.35;;;;;;;11.91;93.38;102878.38;5004159;28;20100;-62
2023/05/26 06:58:48;;;;;;;19.70;5.47;;;;;;;11.96;92.06;102879.53;5004289;28;20037;-63
2023/05/26 07:01:13;;;;;;;21.42;6.10;;;;;;;12.10;91.06;102876.91;5003020;28;20119;-64
2023/05/26 07:03:38;;;;;;;19.20;4.93;;;;;;;12.27;91.19;102888.28;4993462;28;20148;-64
2023/05/26 07:06:04;;;;;;;24.58;5.65;;;;;;;12.22;88.68;102897.50;4989395;28;20192;-63
2023/05/26 07:08:30;;;;;;;18.63;5.25;;;;;;;12.31;88.49;102894.53;4998905;28;20022;-63
2023/05/26 07:10:55;;;;;;;17.35;5.43;;;;;;;12.30;87.20;102887.56;5007619;28;20505;-63
2023/05/26 07:13:20;;;;;;;21.02;5.90;;;;;;;12.44;86.95;102894.44;4997265;28;20022;-63
2023/05/26 07:15:46;;;;;;;19.23;5.57;;;;;;;12.62;86.56;102896.31;5013710;28;20040;-63
2023/05/26 07:18:11;;;;;;;20.27;6.45;;;;;;;12.82;85.81;102889.63;5007959;28;20064;-63
2023/05/26 07:20:37;;;;;;;17.77;5.00;;;;;;;13.02;85.21;102896.72;5008208;28;20069;-63
2023/05/26 07:23:02;;;;;;;17.45;6.15;;;;;;;13.12;82.33;102888.59;5008276;28;20037;-63
2023/05/26 07:25:29;;;;;;;19.42;5.05;;;;;;;13.34;83.16;102897.56;5008265;28;20594;-63
2023/05/26 07:27:54;;;;;;;23.45;6.57;;;;;;;13.30;81.77;102887.78;5007382;28;20021;-63
2023/05/26 07:30:19;;;;;;;19.10;5.05;;;;;;;13.44;82.15;102892.03;4996165;28;20027;-63
2023/05/26 07:32:45;;;;;;;21.42;5.53;;;;;;;13.41;81.99;102893.59;5004414;28;20075;-63
2023/05/26 07:35:11;;;;;;;17.83;4.82;;;;;;;13.60;83.31;102892.88;4990504;28;20033;-64
2023/05/26 07:37:36;;;;;;;18.77;5.18;;;;;;;13.63;80.11;102900.88;5002011;28;20068;-63
2023/05/26 07:40:03;;;;;;;21.50;6.07;;;;;;;13.80;79.20;102895.59;5005939;28;20021;-64
2023/05/26 07:42:28;;;;;;;24.92;6.53;;;;;;;13.98;80.57;102892.16;5006381;28;20078;-63
2023/05/26 07:44:55;;;;;;;13.55;5.18;;;;;;;13.81;77.08;102894.81;5008162;28;20434;-63
2023/05/26 07:47:20;;;;;;;17.45;5.28;;;;;;;13.96;77.22;102886.00;5008199;28;20026;-63
2023/05/26 07:49:46;;;;;;;18.50;5.43;;;;;;;14.13;75.66;102890.34;5008200;28;20022;-63
2023/05/26 07:52:11;;;;;;;17.17;5.55;;;;;;;14.33;75.19;102893.03;5005846;28;20022;-63
2023/05/26 07:54:36;;;;;;;17.88;4.82;;;;;;;14.44;76.64;102887.44;5002032;28;20390;-64
2023/05/26 07:57:02;;;;;;;14.45;5.07;;;;;;;14.59;75.11;102893.38;4998975;28;20029;-63
2023/05/26 07:59:27;;;;;;;20.65;5.80;;;;;;;14.78;74.65;102891.69;5001657;28;20097;-64
2023/05/26 08:01:52;;;;;;;18.27;5.32;;;;;;;14.98;73.76;102895.25;5006536;28;20022;-64
2023/05/26 08:04:17;;;;;;;15.80;5.03;;;;;;;15.31;74.56;102891.50;5006230;28;20037;-63
2023/05/26 08:06:43;;;;;;;14.07;4.55;;;;;;;15.44;70.51;102892.94;5000662;28;20470;-63
2023/05/26 08:09:10;;;;;;;16.30;5.00;;;;;;;15.61;71.44;102888.44;4999776;28;20425;-63
2023/05/26 08:11:36;;;;;;;17.95;5.80;;;;;;;15.83;70.45;102889.38;5006316;28;20606;-65
2023/05/26 08:14:01;;;;;;;16.45;5.20;;;;;;;15.92;68.12;102893.22;5006561;28;20109;-63
2023/05/26 08:16:26;;;;;;;15.82;4.68;;;;;;;16.03;67.18;102897.22;5006798;28;20461;-63
2023/05/26 08:18:52;;;;;;;19.55;4.88;;;;;;;15.71;65.31;102899.31;5006361;28;20026;-63
2023/05/26 08:21:18;;;;;;;18.17;5.28;;;;;;;15.95;67.72;102893.34;5007209;28;20099;-67
2023/05/26 08:23:43;;;;;;;16.67;5.20;;;;;;;15.95;66.31;102889.03;5008189;28;20022;-63
2023/05/26 08:26:08;;;;;;;18.85;5.07;;;;;;;16.14;68.41;102886.28;4999268;28;20018;-64
2023/05/26 08:28:34;;;;;;;15.10;5.18;;;;;;;16.31;69.06;102887.91;5007829;28;20100;-63
2023/05/26 08:31:00;;;;;;;14.88;4.80;;;;;;;16.46;64.88;102881.47;4999608;28;20072;-64
2023/05/26 08:33:25;;;;;;;17.20;5.13;;;;;;;16.66;65.00;102886.59;5007303;28;20021;-63
2023/05/26 08:35:51;;;;;;;16.70;5.28;;;;;;;16.78;64.27;102888.84;4990034;28;20018;-63
2023/05/26 08:38:16;;;;;;;18.75;5.70;;;;;;;16.84;63.59;102890.81;5007267;28;20050;-64
2023/05/26 08:40:42;;;;;;;15.40;5.03;;;;;;;16.77;61.26;102882.69;5007215;28;20067;-64
2023/05/26 08:43:09;;;;;;;18.75;4.90;;;;;;;16.95;62.23;102886.84;5011579;28;20045;-64
2023/05/26 08:45:37;;;;;;;14.50;4.72;;;;;;;17.04;60.63;102881.97;5005837;28;20442;-65
2023/05/26 08:48:06;;;;;;;18.23;5.07;;;;;;;16.72;60.21;102892.09;5011467;28;20030;-64
2023/05/26 08:50:32;;;;;;;18.73;5.18;;;;;;;16.96;61.87;102887.75;5007000;28;20696;-65
2023/05/26 08:53:00;;;;;;;13.05;4.43;;;;;;;17.07;58.00;102888.16;5011239;28;20422;-64
2023/05/26 08:55:30;;;;;;;15.00;5.13;;;;;;;17.08;57.88;102882.97;5010416;28;20109;-63
2023/05/26 08:57:56;;;;;;;17.48;4.78;;;;;;;17.25;58.85;102883.63;5011161;28;20025;-65
2023/05/26 09:00:21;;;;;;;14.50;5.07;;;;;;;17.37;58.67;102884.91;5010047;28;20113;-64
2023/05/26 09:02:47;;;;;;;18.88;4.43;;;;;;;17.33;57.17;102883.00;5011129;28;20466;-64
2023/05/26 09:05:13;;;;;;;14.93;4.47;;;;;;;17.42;57.03;102885.97;5010870;28;20030;-63
2023/05/26 09:07:39;;;;;;;12.32;4.70;;;;;;;17.71;58.66;102883.50;5010807;28;20061;-64
2023/05/26 09:10:29;;;;;;;15.10;5.18;;;;;;;17.47;56.23;102883.50;5004756;28;20026;-65
2023/05/26 09:13:21;;;;;;;20.10;4.93;;;;;;;17.64;55.76;102878.88;5007081;28;20022;-64
2023/05/26 09:15:53;;;;;;;13.07;4.78;;;;;;;17.59;55.25;102881.31;4995157;28;20082;-65
2023/05/26 09:18:19;;;;;;;13.43;4.65;;;;;;;17.05;54.43;102883.75;5010895;28;20452;-65
2023/05/26 09:20:45;;;;;;;18.05;5.45;;;;;;;17.21;55.83;102889.59;5011281;28;20022;-64
2023/05/26 09:23:13;;;;;;;18.38;5.55;;;;;;;17.35;57.10;102889.19;5010129;28;20065;-64
2023/05/26 09:25:42;;;;;;;14.18;5.03;;;;;;;17.58;55.57;102883.88;5010472;28;20038;-64
2023/05/26 09:28:10;;;;;;;13.52;4.93;;;;;;;17.68;55.64;102893.88;5010914;28;20025;-64
2023/05/26 09:30:43;;;;;;;12.60;4.45;;;;;;;17.84;56.03;102894.41;5009411;28;20037;-65
2023/05/26 09:33:11;;;;;;;15.95;5.10;;;;;;;17.82;54.12;102899.59;5010736;28;20478;-65
2023/05/26 09:35:41;;;;;;;15.25;4.15;;;;;;;17.45;52.62;102880.81;5003695;28;20405;-64
2023/05/26 09:38:11;;;;;;;13.95;4.72;;;;;;;17.75;56.03;102889.72;5010613;28;20057;-64
2023/05/26 09:40:43;;;;;;;19.67;5.03;;;;;;;17.79;53.34;102888.09;5008977;28;20095;-63
2023/05/26 09:43:08;;;;;;;15.60;4.80;;;;;;;17.98;55.25;102890.53;5010365;28;20061;-65
2023/05/26 09:45:35;;;;;;;12.85;4.72;;;;;;;18.24;57.71;102887.88;5004814;28;20926;-64
2023/05/26 09:48:02;;;;;;;14.15;4.40;;;;;;;18.50;57.35;102886.03;5010588;28;20057;-64
2023/05/26 09:50:32;;;;;;;12.48;4.72;;;;;;;18.66;54.54;102888.31;5006826;28;20026;-63
2023/05/26 09:53:00;;;;;;;14.82;4.47;;;;;;;18.64;54.61;102894.34;5009930;28;20025;-64
2023/05/26 09:55:25;;;;;;;14.43;4.90;;;;;;;18.63;50.92;102897.81;5009728;28;20386;-64
2023/05/26 09:57:52;;;;;;;15.60;4.88;;;;;;;18.54;50.70;102887.94;5010114;28;20029;-64
2023/05/26 10:00:20;;;;;;;13.65;5.05;;;;;;;18.61;51.68;102871.53;5009130;28;20032;-64
2023/05/26 10:02:47;;;;;;;13.60;3.70;;;;;;;18.63;52.17;102882.06;5010045;28;20034;-64
2023/05/26 10:05:13;;;;;;;12.73;4.35;;;;;;;18.75;51.83;102879.81;5003109;28;20466;-65
2023/05/26 10:07:41;;;;;;;10.27;4.28;;;;;;;18.69;48.26;102875.25;5002399;28;20030;-64
2023/05/26 10:10:10;;;;;;;11.63;4.22;;;;;;;18.83;49.20;102873.06;5009504;28;20022;-64
2023/05/26 10:12:35;;;;;;;16.20;4.85;;;;;;;18.62;46.35;102875.91;5009111;28;20821;-65
2023/05/26 10:15:03;;;;;;;12.82;4.43;;;;;;;18.69;48.43;102870.00;5009889;28;20041;-64
2023/05/26 10:17:29;;;;;;;12.30;4.43;;;;;;;18.89;50.41;102867.09;5009410;28;20026;-65
2023/05/26 10:19:56;;;;;;;13.27;4.07;;;;;;;19.06;50.02;102874.59;5009538;28;20025;-65
2023/05/26 10:22:35;;;;;;;10.40;4.20;;;;;;;18.96;47.89;102869.06;5009775;28;20113;-65
2023/05/26 10:25:11;;;;;;;13.00;4.47;;;;;;;19.16;50.45;102863.50;4999077;28;20065;-64
2023/05/26 10:27:42;;;;;;;16.50;4.88;;;;;;;19.20;48.72;102872.38;5008271;28;20032;-65
2023/05/26 10:30:10;;;;;;;12.63;4.30;;;;;;;19.02;47.55;102870.97;5001823;28;20057;-64
2023/05/26 10:32:55;;;;;;;13.55;4.65;;;;;;;19.19;52.12;102866.22;5005373;28;20189;-65
2023/05/26 10:35:31;;;;;;;14.93;5.07;;;;;;;19.47;50.48;102859.94;5004966;28;20080;-64
2023/05/26 10:38:02;;;;;;;14.45;5.15;;;;;;;19.52;49.53;102864.47;5001587;28;20061;-64
2023/05/26 10:40:33;;;;;;;;;;;;;;;19.56;49.21;102860.19;5002174;28;20042;-64
2023/05/26 10:43:00;;;;;;;;;;;;;;;19.59;48.98;102855.00;5002015;28;20338;-64
2023/05/26 10:45:30;;;;;;;14.48;4.22;;;;;;;19.62;47.11;102859.47;5006985;28;20009;-65
2023/05/26 10:47:58;;;;;;;13.20;4.00;;;;;;;19.40;45.29;102859.78;5007393;28;20026;-66
2023/05/26 10:50:23;;;;;;;11.38;4.15;;;;;;;19.48;46.10;102857.34;5007416;28;20466;-65
2023/05/26 10:52:51;;;;;;;12.90;4.22;;;;;;;19.36;45.62;102855.28;5002172;28;20021;-65
2023/05/26 10:55:52;;;;;;;10.35;4.40;;;;;;;19.14;45.20;102846.81;5000562;28;20048;-65
2023/05/26 10:58:27;;;;;;;10.75;4.20;;;;;;;19.17;46.43;102844.28;4987094;28;20041;-65
2023/05/26 11:00:58;;;;;;;9.07;4.40;;;;;;;19.24;47.93;102847.06;5008144;28;20022;-65
2023/05/26 11:03:36;;;;;;;12.55;4.07;;;;;;;19.20;45.27;102841.75;4999995;28;20022;-64
2023/05/26 11:06:02;;;;;;;11.27;4.32;;;;;;;19.31;46.71;102846.41;5008195;28;20462;-64
2023/05/26 11:08:49;;;;;;;11.65;4.28;;;;;;;19.52;47.52;102840.81;5008263;28;20037;-64
2023/05/26 11:11:27;;;;;;;13.80;4.57;;;;;;;19.68;48.06;102841.22;5020195;28;20030;-65
2023/05/26 11:14:02;;;;;;;13.15;3.67;;;;;;;19.83;45.71;102848.63;5004569;28;20026;-66
2023/05/26 11:16:27;;;;;;;8.93;3.33;;;;;;;19.81;43.37;102845.06;5008397;28;20462;-64